Columbus, Ohio
Current Conditions -  °F | °C
As of 3:51 AM on Thursday 27 Nov 2014 (Local Time) from KCMH Reporting Station
Overcast Overcast  
Wind Chill: 23°   Ceiling: 3400
Heat Index: 31°   Visibility: 8mi
Dew Point: 25°   Wind: 9mph
Humidity: 79%   Direction: 340°NNW
Pressure: 30.05"   Gusts: NA
Location:  39.96°N, 83°W
Report Text: KCMH 270851Z 34008KT 8SM FEW012 OVC034 M01/M04 A3005 RMK AO2 SLP182 T10061039 53004
Loading
Personal Weather Stations






























Interactive Weather Map New forecast layout! Learn more

10-Day Weather Forecast

Advertisements
Track Severe Weather on mobile